Time;durP1;ratioP1;P1;durP2;ratioP2;P2;SDS_P1;SDS_P2;PMS_P1;PMS_P2;Temp;Humidity;BMP_temperature;BMP_pressure;BME280_temperature;BME280_humidity;BME280_pressure;Samples;Min_cycle;Max_cycle;Signal;HPM_P1;HPM_P2
2022/09/26 00:01:10;;;;;;;0.32;0.08;;;;;;;9.90;100.00;100208.06;5017322;28;20183;-50
2022/09/26 00:03:35;;;;;;;3.92;0.35;;;;;;;9.88;100.00;100218.03;5019960;28;20475;-51
2022/09/26 00:06:03;;;;;;;2.45;0.20;;;;;;;9.89;100.00;100193.19;5025485;28;20040;-50
2022/09/26 00:08:29;;;;;;;1.25;0.10;;;;;;;9.87;100.00;100190.72;5029147;28;20075;-50
2022/09/26 00:10:59;;;;;;;1.13;0.00;;;;;;;9.88;100.00;100192.34;5031825;28;20033;-52
2022/09/26 00:13:26;;;;;;;0.88;0.17;;;;;;;9.87;100.00;100195.22;5024248;28;20049;-49
2022/09/26 00:15:52;;;;;;;3.10;0.20;;;;;;;9.85;100.00;100184.00;5022423;28;20033;-55
2022/09/26 00:18:18;;;;;;;2.63;0.15;;;;;;;9.86;100.00;100182.97;5020100;28;20387;-56
2022/09/26 00:20:43;;;;;;;1.63;0.73;;;;;;;9.88;100.00;100186.25;5027684;28;20443;-51
2022/09/26 00:23:08;;;;;;;2.17;0.20;;;;;;;9.91;100.00;100175.25;5024432;28;20033;-51
2022/09/26 00:25:34;;;;;;;0.63;0.30;;;;;;;9.90;100.00;100158.56;5027180;28;20406;-52
2022/09/26 00:27:59;;;;;;;2.95;0.80;;;;;;;9.93;100.00;100146.75;5024176;28;20379;-50
2022/09/26 00:30:25;;;;;;;0.75;0.10;;;;;;;9.95;100.00;100140.25;5029248;28;20478;-51
2022/09/26 00:32:50;;;;;;;1.92;0.93;;;;;;;9.96;100.00;100126.00;5029153;28;20530;-50
2022/09/26 00:35:16;;;;;;;2.58;0.10;;;;;;;9.95;100.00;100119.06;5020539;28;20726;-51
2022/09/26 00:37:41;;;;;;;1.38;1.02;;;;;;;9.98;100.00;100109.91;5026817;28;20033;-53
2022/09/26 00:40:07;;;;;;;0.25;0.10;;;;;;;9.93;100.00;100105.19;5027767;28;20148;-50
2022/09/26 00:42:32;;;;;;;1.70;0.20;;;;;;;9.87;100.00;100092.75;5019602;28;20099;-48
2022/09/26 00:44:58;;;;;;;0.57;0.22;;;;;;;9.88;100.00;100082.97;5024690;28;20383;-52
2022/09/26 00:47:26;;;;;;;0.35;0.00;;;;;;;9.80;100.00;100066.22;5018551;28;20052;-50
2022/09/26 00:49:58;;;;;;;1.95;0.13;;;;;;;9.75;100.00;100051.94;5021392;28;20025;-49
2022/09/26 00:52:26;;;;;;;;;;;;;;;9.71;100.00;100046.22;5023587;28;20030;-51
2022/09/26 00:54:55;;;;;;;1.13;0.57;;;;;;;9.67;100.00;100052.09;5026109;28;20012;-49
2022/09/26 00:57:25;;;;;;;0.95;0.10;;;;;;;9.63;100.00;100038.47;5022961;28;20037;-51
2022/09/26 00:59:59;;;;;;;0.85;0.20;;;;;;;9.63;100.00;100033.16;5024871;28;20092;-52
2022/09/26 01:02:27;;;;;;;1.10;0.77;;;;;;;9.60;100.00;100031.72;5023217;28;20037;-50
2022/09/26 01:04:53;;;;;;;1.58;0.20;;;;;;;9.60;100.00;100025.59;5024317;28;20344;-49
2022/09/26 01:07:23;;;;;;;0.75;0.20;;;;;;;9.62;100.00;100026.22;5024346;28;20043;-50
2022/09/26 01:09:49;;;;;;;1.05;0.25;;;;;;;9.61;100.00;100016.66;5018770;28;20605;-50
2022/09/26 01:12:15;;;;;;;3.65;0.20;;;;;;;9.63;100.00;100024.38;5024504;28;20116;-53
2022/09/26 01:14:43;;;;;;;1.25;0.20;;;;;;;9.65;100.00;100009.13;5024538;28;20050;-52
2022/09/26 01:17:10;;;;;;;0.77;0.47;;;;;;;9.66;100.00;100006.28;5024507;28;20045;-51
2022/09/26 01:20:04;;;;;;;0.43;0.35;;;;;;;9.68;100.00;100009.56;5022873;28;20029;-51
2022/09/26 01:22:47;;;;;;;2.55;0.63;;;;;;;9.69;100.00;99987.38;5022993;28;20036;-53
2022/09/26 01:25:15;;;;;;;1.85;0.30;;;;;;;9.66;100.00;99977.19;5019593;28;20500;-51
2022/09/26 01:27:59;;;;;;;5.30;2.05;;;;;;;9.66;100.00;99969.25;5018485;28;20038;-54
2022/09/26 01:30:30;;;;;;;1.80;0.32;;;;;;;9.62;100.00;99967.97;5023259;28;20084;-51
2022/09/26 01:33:28;;;;;;;6.38;0.60;;;;;;;9.58;100.00;99966.75;5022896;28;20033;-50
2022/09/26 01:36:24;;;;;;;0.43;0.28;;;;;;;9.55;100.00;99964.47;5024791;28;20076;-51
2022/09/26 01:39:10;;;;;;;1.85;0.10;;;;;;;9.52;100.00;99960.41;5023903;28;20045;-56
2022/09/26 01:41:48;;;;;;;1.23;0.35;;;;;;;9.45;100.00;99961.38;5025913;28;20109;-52
2022/09/26 01:44:14;;;;;;;3.35;1.15;;;;;;;9.43;100.00;99958.13;5024878;28;20080;-52
2022/09/26 01:47:02;;;;;;;1.17;0.20;;;;;;;9.42;100.00;99964.44;5015095;28;20037;-53
2022/09/26 01:49:45;;;;;;;0.35;0.10;;;;;;;9.38;100.00;99950.78;5025186;28;20030;-52
2022/09/26 01:52:29;;;;;;;0.75;0.10;;;;;;;9.32;100.00;99959.47;5024470;28;20036;-50
2022/09/26 01:55:02;;;;;;;2.00;0.13;;;;;;;9.31;100.00;99958.66;5025017;28;20033;-52
2022/09/26 01:57:32;;;;;;;1.27;0.10;;;;;;;9.34;100.00;99958.28;5024531;28;20033;-51
2022/09/26 02:00:02;;;;;;;1.55;0.13;;;;;;;9.32;100.00;99940.97;5019250;28;20403;-50
2022/09/26 02:02:32;;;;;;;1.90;0.20;;;;;;;9.31;100.00;99937.50;5022685;28;20036;-51
2022/09/26 02:05:11;;;;;;;0.50;0.20;;;;;;;9.31;100.00;99928.75;5023167;28;20021;-51
2022/09/26 02:07:46;;;;;;;2.58;0.20;;;;;;;9.30;100.00;99917.38;5019339;28;20411;-50
2022/09/26 02:10:33;;;;;;;0.25;0.10;;;;;;;9.33;100.00;99908.22;5023059;28;20358;-50
2022/09/26 02:13:08;;;;;;;1.30;0.82;;;;;;;9.32;100.00;99910.06;5014557;28;20048;-49
2022/09/26 02:15:35;;;;;;;2.45;1.25;;;;;;;9.33;100.00;99903.75;5023815;28;20088;-54
2022/09/26 02:18:10;;;;;;;0.73;0.30;;;;;;;9.35;100.00;99899.06;5024201;28;20025;-49
2022/09/26 02:20:37;;;;;;;1.83;0.20;;;;;;;9.35;100.00;99887.69;5022802;28;20038;-50
2022/09/26 02:23:03;;;;;;;1.17;0.30;;;;;;;9.36;100.00;99879.53;5023547;28;20038;-49
2022/09/26 02:25:30;;;;;;;2.92;0.57;;;;;;;9.37;100.00;99875.88;5039292;28;20041;-53
2022/09/26 02:27:56;;;;;;;3.58;0.88;;;;;;;9.39;100.00;99857.97;5021199;28;20120;-54
2022/09/26 02:30:21;;;;;;;1.08;0.55;;;;;;;9.38;100.00;99842.31;5026694;28;20109;-53
2022/09/26 02:32:47;;;;;;;6.43;0.22;;;;;;;9.38;100.00;99840.47;5023771;28;20496;-52
2022/09/26 02:37:58;;;;;;;1.45;0.20;;;;;;;9.42;100.00;99817.06;5026426;28;20048;-52
2022/09/26 02:40:31;;;;;;;0.88;0.00;;;;;;;9.45;100.00;99803.44;5024039;28;20037;-51
2022/09/26 02:43:22;;;;;;;0.95;0.30;;;;;;;9.46;100.00;99799.78;5023568;28;20056;-52
2022/09/26 02:46:23;;;;;;;7.00;0.63;;;;;;;9.49;100.00;99785.34;5026781;28;20433;-52
2022/09/26 02:49:03;;;;;;;;;;;;;;;9.50;100.00;99784.31;5022052;28;20129;-50
2022/09/26 02:51:41;;;;;;;0.55;0.10;;;;;;;9.48;100.00;99791.66;5015161;28;19921;-55
2022/09/26 02:54:21;;;;;;;2.80;0.10;;;;;;;9.45;100.00;99784.09;5033598;28;20060;-54
2022/09/26 02:57:11;;;;;;;2.92;0.20;;;;;;;9.42;100.00;99776.56;5026534;28;20368;-54
2022/09/26 02:59:47;;;;;;;0.80;0.10;;;;;;;9.38;100.00;99773.50;5025739;28;20028;-54
2022/09/26 03:02:17;;;;;;;6.13;0.30;;;;;;;9.37;100.00;99753.34;5031221;28;20120;-54
2022/09/26 03:05:00;;;;;;;2.03;1.30;;;;;;;9.34;100.00;99753.75;5031631;28;20379;-53
2022/09/26 03:07:38;;;;;;;2.67;0.80;;;;;;;9.34;100.00;99729.94;5030607;28;20040;-49
2022/09/26 03:10:07;;;;;;;7.88;0.55;;;;;;;9.35;100.00;99724.47;5018439;28;20033;-54
2022/09/26 03:12:34;;;;;;;1.73;0.22;;;;;;;9.31;100.00;99725.88;5030636;28;20022;-52
2022/09/26 03:15:03;;;;;;;4.15;1.55;;;;;;;9.29;100.00;99722.63;5021873;28;20040;-51
2022/09/26 03:17:30;;;;;;;2.25;0.20;;;;;;;9.29;100.00;99711.22;5030019;28;20086;-53
2022/09/26 03:20:16;;;;;;;0.95;0.13;;;;;;;9.28;100.00;99705.09;5025959;28;20040;-52
2022/09/26 03:22:43;;;;;;;1.75;0.30;;;;;;;9.24;100.00;99703.91;5026003;28;20053;-53
2022/09/26 03:25:15;;;;;;;0.75;0.08;;;;;;;9.25;100.00;99702.06;5020701;28;20300;-52
2022/09/26 03:27:42;;;;;;;1.33;0.47;;;;;;;9.26;100.00;99698.38;5026678;28;20048;-49
2022/09/26 03:30:09;;;;;;;2.70;0.22;;;;;;;9.25;100.00;99699.41;5023559;28;20037;-48
2022/09/26 03:32:36;;;;;;;2.47;0.43;;;;;;;9.25;100.00;99689.66;5021924;28;20033;-49
2022/09/26 03:35:01;;;;;;;2.60;0.90;;;;;;;9.27;100.00;99684.16;5028148;28;20075;-51
2022/09/26 03:37:27;;;;;;;5.35;1.63;;;;;;;9.25;100.00;99687.00;5026458;28;20046;-48
2022/09/26 03:39:52;;;;;;;1.05;0.10;;;;;;;9.28;100.00;99681.31;5024706;28;20029;-49
2022/09/26 03:42:17;;;;;;;1.83;0.30;;;;;;;9.30;100.00;99668.69;5031107;28;20631;-51
2022/09/26 03:44:43;;;;;;;0.73;0.03;;;;;;;9.34;100.00;99674.38;5027495;28;20061;-53
2022/09/26 03:47:09;;;;;;;0.35;0.15;;;;;;;9.37;100.00;99674.81;5028228;28;20044;-49
2022/09/26 03:49:35;;;;;;;2.78;0.25;;;;;;;9.38;100.00;99665.84;5029296;28;20137;-50
2022/09/26 03:52:01;;;;;;;1.63;0.57;;;;;;;9.42;100.00;99660.13;5028824;28;20116;-53
2022/09/26 03:54:26;;;;;;;1.08;0.20;;;;;;;9.45;100.00;99660.56;5027867;28;20029;-51
2022/09/26 03:56:53;;;;;;;2.03;0.25;;;;;;;9.49;100.00;99655.66;5019923;28;20084;-49
2022/09/26 03:59:18;;;;;;;1.85;0.30;;;;;;;9.52;100.00;99645.47;5027654;28;20391;-49
2022/09/26 04:01:43;;;;;;;0.35;0.25;;;;;;;9.56;100.00;99630.03;5025781;28;20037;-49
2022/09/26 04:04:09;;;;;;;0.30;0.20;;;;;;;9.58;100.00;99617.41;5020707;28;20033;-48
2022/09/26 04:06:34;;;;;;;1.10;0.20;;;;;;;9.63;100.00;99611.47;5025633;28;20037;-50
2022/09/26 04:09:00;;;;;;;1.77;0.20;;;;;;;9.68;100.00;99606.38;5025165;28;20034;-52
2022/09/26 04:11:25;;;;;;;1.85;0.47;;;;;;;9.74;100.00;99608.22;5030936;28;20029;-49
2022/09/26 04:13:51;;;;;;;1.23;0.38;;;;;;;9.77;100.00;99603.31;5023470;28;20053;-50
2022/09/26 04:16:18;;;;;;;1.60;0.17;;;;;;;9.81;100.00;99598.44;5025433;28;20040;-50
2022/09/26 04:18:44;;;;;;;1.45;0.30;;;;;;;9.89;100.00;99592.91;5026124;28;20033;-49
2022/09/26 04:21:14;;;;;;;1.38;0.00;;;;;;;9.93;100.00;99590.66;5028795;28;20078;-51
2022/09/26 04:23:41;;;;;;;0.55;0.35;;;;;;;9.96;100.00;99590.22;5026438;28;20036;-49
2022/09/26 04:26:14;;;;;;;2.10;0.43;;;;;;;9.99;100.00;99589.81;5028477;28;20036;-50
2022/09/26 04:28:41;;;;;;;0.20;0.00;;;;;;;10.01;100.00;99577.97;5031192;28;20041;-50
2022/09/26 04:31:07;;;;;;;2.22;0.10;;;;;;;10.05;100.00;99581.84;5026509;28;20036;-51
2022/09/26 04:33:33;;;;;;;0.43;0.15;;;;;;;10.10;100.00;99570.63;5024863;28;20060;-52
2022/09/26 04:36:00;;;;;;;2.03;0.15;;;;;;;10.20;100.00;99560.41;5023941;28;20510;-48
2022/09/26 04:38:32;;;;;;;0.57;0.00;;;;;;;10.24;100.00;99564.22;5023475;28;20052;-51
2022/09/26 04:41:19;;;;;;;1.65;0.10;;;;;;;10.33;100.00;99548.97;5029195;28;20037;-51
2022/09/26 04:43:45;;;;;;;0.10;0.00;;;;;;;10.32;100.00;99530.59;5016307;28;20026;-53
2022/09/26 04:46:16;;;;;;;0.63;0.25;;;;;;;10.32;100.00;99514.72;5023797;28;20037;-50
2022/09/26 04:48:42;;;;;;;;;;;;;;;10.41;100.00;99510.78;5024323;28;20034;-49
2022/09/26 04:51:10;;;;;;;0.43;0.00;;;;;;;10.45;100.00;99504.03;5024903;28;19917;-53
2022/09/26 04:53:37;;;;;;;0.77;0.00;;;;;;;10.52;100.00;99499.50;5018187;28;20446;-50
2022/09/26 04:56:03;;;;;;;0.40;0.03;;;;;;;10.67;100.00;99500.00;5023986;28;20033;-50
2022/09/26 04:58:29;;;;;;;1.25;0.00;;;;;;;10.74;100.00;99477.94;5025447;28;20029;-49
2022/09/26 05:00:59;;;;;;;1.08;0.80;;;;;;;10.80;100.00;99469.94;5024433;28;20038;-49
2022/09/26 05:03:27;;;;;;;2.40;0.10;;;;;;;10.84;100.00;99472.94;5023191;28;20034;-55
2022/09/26 05:05:53;;;;;;;1.17;0.65;;;;;;;10.88;100.00;99471.50;5020680;28;20030;-49
2022/09/26 05:08:18;;;;;;;0.00;0.00;;;;;;;10.92;100.00;99470.03;5031188;28;20025;-49
2022/09/26 05:10:54;;;;;;;0.82;0.00;;;;;;;10.99;100.00;99454.84;5022860;28;20117;-49
2022/09/26 05:13:21;;;;;;;0.00;0.00;;;;;;;11.01;100.00;99466.06;5027379;28;20049;-49
2022/09/26 05:15:48;;;;;;;2.58;0.00;;;;;;;11.07;100.00;99461.72;5022485;28;20033;-49
2022/09/26 05:18:14;;;;;;;0.73;0.00;;;;;;;11.03;100.00;99456.06;5025547;28;20055;-48
2022/09/26 05:20:46;;;;;;;0.00;0.00;;;;;;;11.14;100.00;99467.78;5023486;28;20458;-48
2022/09/26 05:23:11;;;;;;;0.05;0.05;;;;;;;11.17;100.00;99477.16;5018779;28;20638;-49
2022/09/26 05:28:23;;;;;;;0.08;0.00;;;;;;;11.28;100.00;99474.59;5026531;28;20076;-49
2022/09/26 05:30:50;;;;;;;0.00;0.00;;;;;;;11.31;100.00;99470.69;5023745;28;21288;-49
2022/09/26 05:33:18;;;;;;;0.10;0.00;;;;;;;11.34;100.00;99467.59;5025443;28;20545;-53
2022/09/26 05:35:44;;;;;;;0.20;0.03;;;;;;;11.32;100.00;99464.34;5026722;28;20056;-52
2022/09/26 05:38:09;;;;;;;2.20;0.00;;;;;;;11.31;100.00;99462.72;5024990;28;20033;-52
2022/09/26 05:43:18;;;;;;;0.00;0.00;;;;;;;11.38;100.00;99462.63;5020962;28;20634;-52
2022/09/26 05:45:49;;;;;;;0.00;0.00;;;;;;;11.37;100.00;99455.72;5020694;28;20022;-49
2022/09/26 05:48:16;;;;;;;0.65;0.10;;;;;;;11.37;100.00;99450.41;5012177;28;20044;-49
2022/09/26 05:50:42;;;;;;;0.00;0.00;;;;;;;11.38;100.00;99444.88;5026853;28;20112;-48
2022/09/26 05:53:08;;;;;;;0.50;0.00;;;;;;;11.49;100.00;99452.09;5024048;28;20501;-49
2022/09/26 05:55:33;;;;;;;1.17;0.00;;;;;;;11.61;100.00;99440.72;5023761;28;20026;-49
2022/09/26 05:57:59;;;;;;;0.22;0.00;;;;;;;11.62;100.00;99448.50;5022049;28;20034;-49
2022/09/26 06:00:27;;;;;;;0.00;0.00;;;;;;;11.62;100.00;99434.41;5021510;28;20030;-49
2022/09/26 06:02:57;;;;;;;0.00;0.00;;;;;;;11.61;100.00;99420.28;5023993;28;20025;-53
2022/09/26 06:05:23;;;;;;;0.35;0.00;;;;;;;11.63;100.00;99426.19;5015507;28;20090;-49
2022/09/26 06:07:50;;;;;;;0.20;0.00;;;;;;;11.65;100.00;99431.31;5013315;28;20852;-52
2022/09/26 06:10:15;;;;;;;2.30;0.00;;;;;;;11.54;100.00;99448.78;5020232;28;20029;-54
2022/09/26 06:12:41;;;;;;;0.30;0.00;;;;;;;11.41;100.00;99439.13;5016942;28;20021;-52
2022/09/26 06:15:08;;;;;;;0.25;0.00;;;;;;;11.31;100.00;99446.81;5017025;28;20030;-50
2022/09/26 06:17:33;;;;;;;0.20;0.00;;;;;;;11.17;100.00;99442.66;5019396;28;20041;-55
2022/09/26 06:19:59;;;;;;;0.95;0.10;;;;;;;11.06;100.00;99444.19;5014020;28;20026;-50
2022/09/26 06:22:25;;;;;;;2.70;0.32;;;;;;;10.92;100.00;99427.59;5018110;28;20038;-47
2022/09/26 06:24:51;;;;;;;3.20;0.20;;;;;;;10.83;100.00;99420.94;5012531;28;20140;-48
2022/09/26 06:27:16;;;;;;;1.42;0.32;;;;;;;10.70;100.00;99420.03;5016217;28;20111;-49
2022/09/26 06:29:42;;;;;;;2.35;0.75;;;;;;;10.66;100.00;99412.72;5022031;28;20045;-49
2022/09/26 06:32:07;;;;;;;10.77;0.22;;;;;;;10.60;100.00;99421.56;5017648;28;20033;-48
2022/09/26 06:34:32;;;;;;;4.00;0.17;;;;;;;10.59;100.00;99415.44;5022694;28;20037;-53
2022/09/26 06:36:58;;;;;;;1.85;0.10;;;;;;;10.52;100.00;99421.84;5021235;28;20044;-48
2022/09/26 06:39:30;;;;;;;5.10;0.20;;;;;;;10.48;100.00;99411.66;5021139;28;20034;-49
2022/09/26 06:41:55;;;;;;;4.38;0.30;;;;;;;10.41;100.00;99415.41;5024897;28;20060;-54
2022/09/26 06:44:22;;;;;;;4.95;1.20;;;;;;;10.23;100.00;99411.63;5025614;28;20149;-49
2022/09/26 06:46:49;;;;;;;3.58;0.40;;;;;;;10.15;100.00;99413.72;5017550;28;20033;-51
2022/09/26 06:49:14;;;;;;;0.85;0.20;;;;;;;10.09;100.00;99420.66;5025249;28;20039;-48
2022/09/26 06:51:40;;;;;;;4.20;0.32;;;;;;;10.21;100.00;99420.81;5026280;28;20132;-50
2022/09/26 06:54:06;;;;;;;5.85;0.65;;;;;;;10.29;100.00;99428.50;5027436;28;20025;-47
2022/09/26 06:56:31;;;;;;;3.03;0.20;;;;;;;10.38;100.00;99421.13;5031800;28;20025;-52
2022/09/26 06:58:56;;;;;;;0.57;0.20;;;;;;;10.48;100.00;99432.88;5026862;28;20445;-48
2022/09/26 07:01:22;;;;;;;1.63;0.40;;;;;;;10.61;100.00;99426.66;5028325;28;20366;-50
2022/09/26 07:03:47;;;;;;;3.00;1.35;;;;;;;10.66;100.00;99424.16;5024188;28;20037;-48
2022/09/26 07:06:13;;;;;;;2.22;0.28;;;;;;;10.75;100.00;99426.53;5028178;28;20029;-47
2022/09/26 07:08:39;;;;;;;4.68;0.90;;;;;;;10.84;100.00;99411.97;5034938;28;20163;-49
2022/09/26 07:11:05;;;;;;;3.35;0.90;;;;;;;10.93;100.00;99415.97;5030115;28;21300;-48
2022/09/26 07:13:30;;;;;;;2.03;0.52;;;;;;;10.87;100.00;99414.19;5024978;28;20430;-48
2022/09/26 07:15:59;;;;;;;4.82;1.02;;;;;;;10.89;100.00;99412.09;5019785;28;20018;-53
2022/09/26 07:18:25;;;;;;;7.50;0.20;;;;;;;10.97;100.00;99405.72;5022928;28;20408;-53
2022/09/26 07:20:51;;;;;;;2.85;0.52;;;;;;;11.02;100.00;99401.41;5014959;28;20026;-49
2022/09/26 07:23:17;;;;;;;4.50;0.85;;;;;;;11.10;100.00;99398.44;5023094;28;20118;-53
2022/09/26 07:25:46;;;;;;;5.38;0.30;;;;;;;11.16;100.00;99399.41;5026548;28;20112;-50
2022/09/26 07:28:12;;;;;;;4.65;0.38;;;;;;;11.14;100.00;99398.81;5003607;28;20103;-53
2022/09/26 07:30:38;;;;;;;4.38;0.90;;;;;;;11.14;100.00;99399.59;5017008;28;20041;-48
2022/09/26 07:33:04;;;;;;;9.65;1.50;;;;;;;11.23;100.00;99404.63;5021862;28;20511;-51
2022/09/26 07:35:31;;;;;;;3.15;0.20;;;;;;;11.34;100.00;99403.91;5018553;28;20080;-51
2022/09/26 07:37:58;;;;;;;6.63;0.38;;;;;;;11.51;100.00;99407.56;5018311;28;20037;-51
2022/09/26 07:40:24;;;;;;;3.42;0.77;;;;;;;11.70;100.00;99408.34;5017092;28;20033;-50
2022/09/26 07:42:51;;;;;;;5.80;1.05;;;;;;;11.81;100.00;99409.44;5018781;28;20055;-51
2022/09/26 07:45:16;;;;;;;9.02;1.30;;;;;;;11.82;100.00;99411.03;5018956;28;20025;-49
2022/09/26 07:50:46;;;;;;;8.18;1.55;;;;;;;11.83;100.00;99402.06;5016130;28;20456;-54
2022/09/26 07:53:11;;;;;;;14.52;2.80;;;;;;;11.85;100.00;99402.66;5012204;28;20076;-53
2022/09/26 07:56:04;;;;;;;11.55;0.98;;;;;;;11.77;100.00;99403.78;5017599;28;20510;-52
2022/09/26 07:58:24;;;;;;;9.43;1.50;;;;;;;11.45;100.00;99411.09;5017066;28;20029;-56
2022/09/26 08:00:50;;;;;;;7.78;1.75;;;;;;;11.26;100.00;99410.31;5015430;28;20045;-51
2022/09/26 08:03:15;;;;;;;7.72;0.73;;;;;;;11.20;100.00;99415.69;5018714;28;20116;-49
2022/09/26 08:05:41;;;;;;;9.45;1.38;;;;;;;11.14;100.00;99407.56;5025114;28;20386;-49
2022/09/26 08:08:06;;;;;;;17.40;3.47;;;;;;;11.22;100.00;99409.13;5022293;28;20071;-53
2022/09/26 08:10:33;;;;;;;6.30;1.30;;;;;;;11.21;100.00;99406.72;5024365;28;20107;-48
2022/09/26 08:13:00;;;;;;;9.07;1.48;;;;;;;11.25;100.00;99406.00;5024297;28;20063;-49
2022/09/26 08:15:26;;;;;;;6.13;1.73;;;;;;;11.30;100.00;99408.00;5023877;28;20040;-55
2022/09/26 08:17:51;;;;;;;10.32;1.65;;;;;;;11.34;100.00;99404.69;5024220;28;20033;-54
2022/09/26 08:20:17;;;;;;;10.10;2.65;;;;;;;11.43;100.00;99412.34;5022429;28;20067;-54
2022/09/26 08:22:42;;;;;;;14.25;2.50;;;;;;;11.44;100.00;99406.84;5022828;28;20558;-53
2022/09/26 08:25:08;;;;;;;14.48;2.13;;;;;;;11.51;100.00;99407.56;5014580;28;20033;-51
2022/09/26 08:27:34;;;;;;;16.67;3.40;;;;;;;11.55;100.00;99413.25;5015282;28;20034;-55
2022/09/26 08:30:00;;;;;;;10.20;2.70;;;;;;;11.66;100.00;99416.97;5021937;28;20033;-50
2022/09/26 08:32:26;;;;;;;4.97;1.10;;;;;;;11.68;100.00;99401.63;5025021;28;20029;-56
2022/09/26 08:34:51;;;;;;;14.40;1.20;;;;;;;11.62;100.00;99402.56;5021940;28;20033;-52
2022/09/26 08:37:19;;;;;;;11.32;1.23;;;;;;;11.57;100.00;99397.91;5020827;28;20116;-53
2022/09/26 08:39:45;;;;;;;13.73;3.95;;;;;;;11.67;100.00;99392.03;5018649;28;20033;-51
2022/09/26 08:42:27;;;;;;;11.60;1.63;;;;;;;11.70;100.00;99407.53;5021980;28;20025;-53
2022/09/26 08:48:13;;;;;;;7.60;1.25;;;;;;;11.92;100.00;99402.56;5023021;28;20044;-50
2022/09/26 08:50:50;;;;;;;9.20;1.30;;;;;;;12.30;100.00;99396.91;5022776;28;20180;-55
2022/09/26 08:53:21;;;;;;;19.00;4.30;;;;;;;12.72;100.00;99386.16;5020672;28;20113;-53
2022/09/26 08:55:48;;;;;;;19.55;3.30;;;;;;;12.68;100.00;99379.72;5022905;28;20033;-51
2022/09/26 08:58:21;;;;;;;14.85;1.85;;;;;;;12.50;100.00;99387.81;5023598;28;20108;-55
2022/09/26 09:00:50;;;;;;;10.75;3.38;;;;;;;12.32;100.00;99389.50;5021733;28;20033;-54
2022/09/26 09:03:27;;;;;;;12.75;2.25;;;;;;;12.23;100.00;99393.53;5019430;28;20534;-52
2022/09/26 09:06:06;;;;;;;20.52;3.05;;;;;;;12.21;100.00;99399.09;5021620;28;20414;-52
2022/09/26 09:08:38;;;;;;;15.52;2.95;;;;;;;12.17;100.00;99397.91;5019794;28;20037;-52
2022/09/26 09:11:10;;;;;;;22.67;2.53;;;;;;;12.23;100.00;99402.28;5017817;28;20049;-53
2022/09/26 09:13:51;;;;;;;11.90;3.83;;;;;;;12.40;100.00;99414.94;5021198;28;20388;-54
2022/09/26 09:16:21;;;;;;;11.57;3.53;;;;;;;12.40;100.00;99393.69;5015573;28;20038;-59
2022/09/26 09:19:13;;;;;;;14.13;2.08;;;;;;;12.47;100.00;99401.53;5019154;28;20050;-53
2022/09/26 09:22:01;;;;;;;12.63;3.08;;;;;;;12.62;100.00;99410.69;5023345;28;20033;-49
2022/09/26 09:24:38;;;;;;;13.02;6.90;;;;;;;13.02;100.00;99403.88;5020709;28;20033;-53
2022/09/26 09:27:21;;;;;;;13.95;3.35;;;;;;;12.95;100.00;99403.16;5017161;28;20160;-52
2022/09/26 09:30:18;;;;;;;19.90;2.75;;;;;;;13.00;100.00;99395.31;5019822;28;20061;-56
2022/09/26 09:32:43;;;;;;;10.73;2.55;;;;;;;13.16;100.00;99397.25;5022905;28;20376;-59
2022/09/26 09:35:15;;;;;;;14.18;3.25;;;;;;;13.29;100.00;99393.53;5019348;28;20047;-57
2022/09/26 09:37:46;;;;;;;20.38;4.47;;;;;;;13.48;100.00;99396.88;5024216;28;20285;-58
2022/09/26 09:40:22;;;;;;;11.45;2.15;;;;;;;13.42;100.00;99395.13;5021145;28;20041;-50
2022/09/26 09:42:54;;;;;;;16.80;3.60;;;;;;;13.63;100.00;99396.34;5022592;28;20048;-48
2022/09/26 09:45:29;;;;;;;9.45;1.42;;;;;;;13.82;100.00;99399.63;5019458;28;20029;-47
2022/09/26 09:47:56;;;;;;;10.02;1.65;;;;;;;14.18;100.00;99395.75;5015907;28;20030;-49
2022/09/26 09:50:29;;;;;;;11.98;3.20;;;;;;;14.03;100.00;99385.63;5021585;28;20033;-58
2022/09/26 09:53:12;;;;;;;10.23;2.33;;;;;;;13.90;100.00;99399.25;5023303;28;20431;-52
2022/09/26 09:56:02;;;;;;;11.07;1.65;;;;;;;13.77;100.00;99388.88;5022598;28;20041;-57
2022/09/26 09:59:02;;;;;;;11.80;1.75;;;;;;;13.76;100.00;99396.06;5017380;28;20037;-51
2022/09/26 10:01:37;;;;;;;6.88;2.00;;;;;;;13.58;100.00;99386.41;5018391;28;20025;-50
2022/09/26 10:04:48;;;;;;;8.05;1.00;;;;;;;13.58;100.00;99401.56;5016000;28;21168;-52
2022/09/26 10:07:15;;;;;;;6.50;1.30;;;;;;;13.41;100.00;99382.88;5016151;28;20056;-59
2022/09/26 10:09:42;;;;;;;3.83;0.85;;;;;;;13.26;100.00;99384.16;5018157;28;20041;-58
2022/09/26 10:12:17;;;;;;;8.43;1.77;;;;;;;13.42;100.00;99384.47;5016879;28;20037;-52
2022/09/26 10:15:18;;;;;;;8.95;2.30;;;;;;;13.83;100.00;99378.06;5015246;28;20068;-54
2022/09/26 10:18:21;;;;;;;6.00;1.13;;;;;;;14.05;100.00;99386.19;5016904;28;20052;-57
2022/09/26 10:21:15;;;;;;;8.95;1.42;;;;;;;14.40;100.00;99377.16;5020576;28;20065;-51
2022/09/26 10:23:45;;;;;;;11.63;1.70;;;;;;;14.58;100.00;99352.91;5019242;28;20079;-49
2022/09/26 10:26:12;;;;;;;9.77;1.93;;;;;;;14.50;100.00;99371.97;5018195;28;20026;-52
2022/09/26 10:28:48;;;;;;;7.35;0.80;;;;;;;13.86;100.00;99393.59;5016995;28;20033;-51
2022/09/26 10:31:34;;;;;;;5.10;1.30;;;;;;;13.38;100.00;99372.69;5019366;28;20307;-51
2022/09/26 10:34:04;;;;;;;4.22;1.17;;;;;;;13.69;100.00;99384.75;5017975;28;20033;-56
2022/09/26 10:36:35;;;;;;;9.13;2.05;;;;;;;14.18;100.00;99359.22;5018388;28;20071;-53
2022/09/26 10:42:02;;;;;;;4.03;1.20;;;;;;;14.06;100.00;99355.00;5023159;28;20485;-53
2022/09/26 10:44:33;;;;;;;7.22;2.22;;;;;;;14.32;100.00;99348.22;5019532;28;20025;-51
2022/09/26 10:47:07;;;;;;;8.55;1.35;;;;;;;14.38;100.00;99355.28;5025205;28;20029;-51
2022/09/26 10:49:54;;;;;;;2.92;0.40;;;;;;;14.42;100.00;99358.25;5022685;28;20039;-56
2022/09/26 10:52:28;;;;;;;6.13;1.02;;;;;;;14.41;100.00;99352.13;5021157;28;20096;-49
2022/09/26 10:55:03;;;;;;;2.90;0.85;;;;;;;14.32;100.00;99348.22;5023006;28;20049;-49
2022/09/26 10:57:44;;;;;;;5.85;1.13;;;;;;;14.27;100.00;99354.28;5019056;28;20479;-50
2022/09/26 11:00:35;;;;;;;;;;;;;;;13.99;100.00;99363.16;5022570;28;20037;-47
2022/09/26 11:03:03;;;;;;;2.83;0.63;;;;;;;13.59;100.00;99395.22;5022351;28;20811;-45
2022/09/26 11:08:18;;;;;;;6.30;0.25;;;;;;;12.99;100.00;99383.06;5019709;28;20094;-47
2022/09/26 11:10:46;;;;;;;5.72;0.30;;;;;;;13.08;100.00;99381.63;5018983;28;20026;-47
2022/09/26 11:13:17;;;;;;;7.25;0.93;;;;;;;13.24;100.00;99380.94;5021892;28;20049;-51
2022/09/26 11:15:53;;;;;;;9.45;0.70;;;;;;;13.30;100.00;99379.19;5024895;28;20030;-53
2022/09/26 11:18:25;;;;;;;5.03;0.50;;;;;;;13.52;100.00;99377.50;5019913;28;20136;-52
2022/09/26 11:20:54;;;;;;;1.75;0.20;;;;;;;13.72;100.00;99386.94;5021478;28;20071;-50
2022/09/26 11:23:37;;;;;;;5.85;0.35;;;;;;;13.98;100.00;99384.72;5018478;28;20037;-49
2022/09/26 11:26:38;;;;;;;5.80;0.63;;;;;;;14.13;100.00;99382.31;5022802;28;20036;-47
2022/09/26 11:29:40;;;;;;;6.68;0.70;;;;;;;14.52;100.00;99369.88;5021308;28;20049;-54
2022/09/26 11:32:09;;;;;;;;;;;;;;;15.27;100.00;99362.38;5027101;28;20453;-49
2022/09/26 11:34:35;;;;;;;2.00;0.20;;;;;;;15.40;100.00;99356.66;5024497;28;19932;-50
2022/09/26 11:37:20;;;;;;;2.95;0.50;;;;;;;14.57;100.00;99356.66;5031469;28;20022;-50
2022/09/26 11:40:08;;;;;;;3.15;0.28;;;;;;;14.31;100.00;99367.97;5020777;28;20543;-51
2022/09/26 11:42:53;;;;;;;1.80;0.38;;;;;;;13.91;100.00;99384.88;5021342;28;20558;-49
2022/09/26 11:45:56;;;;;;;5.20;0.45;;;;;;;13.56;100.00;99385.03;4904254;28;20290;-50
2022/09/26 11:48:49;;;;;;;3.88;0.45;;;;;;;13.33;100.00;99394.69;5014908;28;20489;-49
2022/09/26 11:51:52;;;;;;;10.48;1.00;;;;;;;12.98;100.00;99392.06;5018474;28;20033;-48
2022/09/26 11:54:24;;;;;;;11.85;1.52;;;;;;;12.90;100.00;99405.72;5018231;28;20025;-53
2022/09/26 11:56:58;;;;;;;5.38;1.20;;;;;;;12.92;100.00;99409.75;5021732;28;20356;-47
2022/09/26 11:59:46;;;;;;;6.07;0.65;;;;;;;13.07;100.00;99412.75;5023547;28;20124;-47
2022/09/26 12:03:03;;;;;;;1.38;1.17;;;;;;;13.01;100.00;99407.56;5021371;28;20167;-50
2022/09/26 12:06:06;;;;;;;0.63;0.22;;;;;;;13.38;100.00;99409.97;4994925;28;20305;-47
2022/09/26 12:08:50;;;;;;;2.00;0.10;;;;;;;13.68;100.00;99418.56;4994313;28;20056;-48